createdAt,value
2018-12-03T00:03:08.090Z,2.57
2018-12-03T00:07:58.986Z,2.33
2018-12-03T00:12:50.652Z,2.40
2018-12-03T00:17:41.595Z,2.83
2018-12-03T00:22:32.494Z,2.67
2018-12-03T00:27:23.406Z,2.50
2018-12-03T00:32:14.299Z,2.37
2018-12-03T00:37:05.923Z,2.93
2018-12-03T00:41:57.626Z,2.60
2018-12-03T00:46:48.513Z,3.40
2018-12-03T00:51:39.410Z,3.13
2018-12-03T00:56:30.325Z,3.03
2018-12-03T01:01:21.958Z,3.10
2018-12-03T01:06:13.582Z,3.10
2018-12-03T01:11:05.230Z,3.33
2018-12-03T01:15:56.863Z,3.67
2018-12-03T01:20:47.781Z,3.57
2018-12-03T01:25:39.418Z,3.27
2018-12-03T01:30:31.109Z,2.90
2018-12-03T01:35:22.007Z,3.23
2018-12-03T01:40:17.838Z,3.10
2018-12-03T01:45:08.780Z,2.73
2018-12-03T01:49:59.706Z,2.50
2018-12-03T01:54:50.611Z,2.50
2018-12-03T01:59:41.518Z,2.20
2018-12-03T02:04:32.408Z,2.00
2018-12-03T02:09:24.090Z,2.33
2018-12-03T02:14:14.986Z,1.90
2018-12-03T02:19:05.879Z,2.00
2018-12-03T02:23:57.510Z,1.57
2018-12-03T02:28:49.182Z,2.10
2018-12-03T02:33:40.119Z,1.67
2018-12-03T02:38:31.018Z,1.40
2018-12-03T02:43:21.903Z,1.60
2018-12-03T02:48:13.899Z,1.90
2018-12-03T02:53:04.789Z,2.10
2018-12-03T02:57:55.686Z,1.90
2018-12-03T03:02:47.327Z,1.77
2018-12-03T03:07:38.950Z,2.20
2018-12-03T03:12:30.578Z,2.20
2018-12-03T03:17:22.210Z,2.30
2018-12-03T03:22:13.847Z,2.17
2018-12-03T03:27:05.549Z,2.03
2018-12-03T03:31:56.459Z,2.23
2018-12-03T03:36:47.350Z,2.60
2018-12-03T03:41:38.250Z,2.87
2018-12-03T03:46:29.933Z,3.43
2018-12-03T03:51:20.844Z,3.30
2018-12-03T03:56:11.747Z,3.80
2018-12-03T04:01:02.635Z,3.10
2018-12-03T04:05:54.333Z,3.43
2018-12-03T04:10:45.218Z,3.50
2018-12-03T04:15:36.180Z,3.70
2018-12-03T04:20:27.078Z,4.13
2018-12-03T04:25:17.981Z,3.97
2018-12-03T04:30:08.875Z,3.53
2018-12-03T04:34:59.842Z,3.87
2018-12-03T04:39:50.739Z,3.30
2018-12-03T04:44:41.630Z,3.60
2018-12-03T04:49:33.263Z,4.37
2018-12-03T04:54:24.908Z,3.93
2018-12-03T04:59:15.871Z,3.83
2018-12-03T05:04:06.778Z,3.53
2018-12-03T05:08:57.715Z,3.50
2018-12-03T05:13:48.619Z,3.60
2018-12-03T05:18:39.520Z,4.00
2018-12-03T05:23:30.476Z,3.07
2018-12-03T05:28:21.430Z,2.60
2018-12-03T05:33:13.070Z,3.00
2018-12-03T05:38:03.972Z,3.63
2018-12-03T05:42:55.669Z,3.27
2018-12-03T05:47:46.557Z,3.77
2018-12-03T05:52:37.510Z,3.10
2018-12-03T05:57:28.403Z,3.63
2018-12-03T06:02:19.351Z,3.60
2018-12-03T06:07:10.256Z,3.50
2018-12-03T06:12:01.178Z,3.33
2018-12-03T06:16:52.106Z,3.20
2018-12-03T06:21:43.008Z,3.80
2018-12-03T06:26:36.677Z,3.50
2018-12-03T06:31:27.658Z,2.87
2018-12-03T06:36:18.642Z,3.00
2018-12-03T06:41:09.570Z,3.40
2018-12-03T06:46:00.481Z,3.00
2018-12-03T06:50:51.414Z,3.50
2018-12-03T06:55:42.301Z,2.83
2018-12-03T07:00:33.192Z,3.17
2018-12-03T07:05:24.874Z,3.10
2018-12-03T07:10:15.779Z,2.80
2018-12-03T07:15:06.666Z,3.10
2018-12-03T07:19:58.309Z,3.10
2018-12-03T07:24:49.210Z,3.10
2018-12-03T07:29:40.837Z,2.53
2018-12-03T07:34:32.487Z,3.10
2018-12-03T07:39:23.390Z,3.20
2018-12-03T07:44:15.035Z,3.00
2018-12-03T07:49:06.671Z,3.17
2018-12-03T07:53:58.315Z,2.50
2018-12-03T07:58:49.952Z,3.20
2018-12-03T08:03:40.850Z,2.33
2018-12-03T08:08:32.490Z,3.10
2018-12-03T08:13:24.126Z,3.20
2018-12-03T08:18:15.785Z,2.57
2018-12-03T08:23:06.670Z,5.07
2018-12-03T08:27:57.585Z,2.73
2018-12-03T08:32:48.478Z,2.30
2018-12-03T08:37:39.379Z,2.70
2018-12-03T08:42:30.325Z,2.60
2018-12-03T08:47:21.231Z,4.67
2018-12-03T08:52:12.110Z,2.73
2018-12-03T08:57:03.011Z,2.63
2018-12-03T09:01:54.657Z,3.03
2018-12-03T09:06:46.291Z,2.60
2018-12-03T09:11:37.939Z,2.83
2018-12-03T09:16:28.856Z,2.90
2018-12-03T09:21:19.751Z,2.30
2018-12-03T09:26:11.462Z,2.43
2018-12-03T09:31:02.357Z,2.27
2018-12-03T09:35:53.263Z,2.33
2018-12-03T09:40:44.157Z,2.33
2018-12-03T09:45:35.793Z,2.47
2018-12-03T09:50:26.686Z,2.17
2018-12-03T09:55:17.597Z,2.20
2018-12-03T10:00:08.501Z,2.10
2018-12-03T10:04:59.403Z,2.27
2018-12-03T10:09:50.308Z,3.47
2018-12-03T10:14:41.221Z,2.90
2018-12-03T10:19:32.120Z,2.57
2018-12-03T10:24:23.789Z,2.40
2018-12-03T10:29:14.718Z,1.80
2018-12-03T10:34:05.625Z,1.87
2018-12-03T10:38:56.525Z,1.80
2018-12-03T10:43:47.424Z,2.40
2018-12-03T10:48:39.091Z,2.30
2018-12-03T10:53:30.001Z,1.77
2018-12-03T10:58:20.899Z,1.60
2018-12-03T11:03:12.538Z,1.23
2018-12-03T11:08:04.175Z,1.60
2018-12-03T11:12:55.081Z,1.30
2018-12-03T11:17:46.730Z,1.30
2018-12-03T11:22:37.642Z,2.50
2018-12-03T11:27:29.283Z,1.53
2018-12-03T11:32:20.207Z,1.20
2018-12-03T11:37:11.101Z,1.50
2018-12-03T11:42:02.756Z,1.10
2018-12-03T11:46:53.659Z,0.80
2018-12-03T11:51:45.312Z,1.47
2018-12-03T11:56:36.213Z,1.03
2018-12-03T12:01:27.885Z,0.90
2018-12-03T12:06:18.799Z,1.17
2018-12-03T12:11:09.703Z,1.00
2018-12-03T12:16:00.594Z,1.13
2018-12-03T12:20:51.490Z,3.33
2018-12-03T12:25:42.387Z,2.07
2018-12-03T12:30:33.300Z,1.60
2018-12-03T12:35:24.194Z,1.40
2018-12-03T12:40:15.122Z,1.47
2018-12-03T12:45:06.029Z,2.00
2018-12-03T12:49:57.000Z,2.00
2018-12-03T12:54:47.921Z,1.87
2018-12-03T12:59:38.833Z,4.57
2018-12-03T13:04:29.757Z,2.57
2018-12-03T13:09:20.654Z,2.00
2018-12-03T13:14:11.562Z,2.07
2018-12-03T13:19:02.474Z,2.30
2018-12-03T13:23:53.382Z,2.20
2018-12-03T13:28:44.294Z,2.30
2018-12-03T13:33:35.208Z,2.13
2018-12-03T13:38:26.851Z,2.50
2018-12-03T13:43:17.755Z,2.33
2018-12-03T13:48:09.399Z,3.13
2018-12-03T13:53:00.476Z,2.77
2018-12-03T13:57:51.227Z,2.90
2018-12-03T14:02:42.858Z,2.93
2018-12-03T14:07:34.491Z,2.87
2018-12-03T14:12:26.123Z,2.77
2018-12-03T14:17:17.058Z,3.10
2018-12-03T14:22:08.689Z,3.00
2018-12-03T14:27:00.322Z,3.73
2018-12-03T14:31:51.962Z,2.80
2018-12-03T14:36:43.587Z,3.13
2018-12-03T14:41:35.231Z,3.07
2018-12-03T14:46:26.870Z,4.20
2018-12-03T14:51:18.562Z,3.00
2018-12-03T14:56:09.460Z,2.97
2018-12-03T15:01:00.351Z,3.50
2018-12-03T15:05:51.324Z,3.03
2018-12-03T15:10:42.214Z,3.30
2018-12-03T15:15:33.116Z,3.00
2018-12-03T15:20:24.030Z,3.73
2018-12-03T15:25:14.949Z,3.40
2018-12-03T15:30:05.916Z,3.30
2018-12-03T15:34:56.817Z,3.70
2018-12-03T15:39:47.719Z,3.97
2018-12-03T15:44:38.615Z,3.20
2018-12-03T15:49:30.259Z,3.70
2018-12-03T15:54:21.243Z,3.70
2018-12-03T15:59:12.211Z,4.93
2018-12-03T16:04:03.124Z,3.90
2018-12-03T16:08:54.035Z,5.83
2018-12-03T16:13:44.972Z,4.10
2018-12-03T16:18:35.862Z,3.60
2018-12-03T16:23:27.506Z,4.30
2018-12-03T16:28:18.408Z,5.00
2018-12-03T16:33:10.580Z,4.83
2018-12-03T16:38:01.484Z,6.07
2018-12-03T16:42:53.122Z,7.47
2018-12-03T16:47:44.767Z,4.13
2018-12-03T16:52:35.732Z,4.23
2018-12-03T16:57:26.627Z,5.67
2018-12-03T17:02:17.517Z,4.17
2018-12-03T17:07:13.971Z,4.87
2018-12-03T17:12:00.076Z,4.33
2018-12-03T17:16:50.965Z,4.83
2018-12-03T17:21:41.849Z,4.30
2018-12-03T17:26:32.756Z,5.40
2018-12-03T17:31:23.679Z,4.53
2018-12-03T17:36:14.567Z,5.23
2018-12-03T17:41:05.457Z,5.60
2018-12-03T17:45:56.344Z,4.90
2018-12-03T17:50:47.242Z,5.53
2018-12-03T17:55:38.138Z,5.07
2018-12-03T18:00:29.037Z,5.03
2018-12-03T18:05:20.727Z,3.83
2018-12-03T18:10:11.679Z,6.33
2018-12-03T18:15:02.607Z,6.97
2018-12-03T18:19:54.257Z,7.70
2018-12-03T18:24:45.950Z,5.53
2018-12-03T18:29:36.846Z,5.13
2018-12-03T18:34:27.782Z,6.93
2018-12-03T18:39:18.716Z,5.20
2018-12-03T18:44:09.738Z,5.47
2018-12-03T18:49:00.734Z,4.00
2018-12-03T18:53:51.622Z,5.37
2018-12-03T18:58:42.511Z,4.70
2018-12-03T19:03:33.495Z,10.20
2018-12-03T19:08:24.418Z,4.83
2018-12-03T19:13:15.328Z,4.10
2018-12-03T19:18:06.254Z,3.73
2018-12-03T19:22:57.205Z,5.60
2018-12-03T19:27:48.194Z,4.00
2018-12-03T19:32:39.103Z,4.17
2018-12-03T19:37:30.001Z,5.77
2018-12-03T19:42:20.955Z,4.13
2018-12-03T19:47:11.888Z,4.70
2018-12-03T19:52:02.905Z,3.90
2018-12-03T19:56:53.790Z,7.53
2018-12-03T20:01:44.738Z,6.70
2018-12-03T20:06:35.774Z,5.23
2018-12-03T20:11:26.780Z,5.30
2018-12-03T20:16:17.727Z,4.87
2018-12-03T20:21:09.419Z,5.73
2018-12-03T20:26:00.311Z,6.63
2018-12-03T20:30:51.273Z,4.27
2018-12-03T20:35:42.193Z,4.33
2018-12-03T20:40:33.103Z,4.00
2018-12-03T20:45:25.536Z,4.10
2018-12-03T20:50:16.467Z,4.27
2018-12-03T20:55:07.363Z,5.87
2018-12-03T20:59:58.255Z,4.10
2018-12-03T21:04:49.947Z,5.33
2018-12-03T21:09:40.838Z,4.00
2018-12-03T21:14:31.798Z,5.20
2018-12-03T21:19:22.698Z,4.23
2018-12-03T21:24:13.621Z,4.93
2018-12-03T21:29:04.511Z,3.60
2018-12-03T21:33:55.422Z,4.13
2018-12-03T21:38:46.319Z,3.33
2018-12-03T21:43:38.009Z,3.07
2018-12-03T21:48:28.905Z,4.80
2018-12-03T21:53:19.789Z,3.67
2018-12-03T21:58:11.619Z,3.70
2018-12-03T22:03:02.517Z,9.00
2018-12-03T22:07:53.531Z,4.83
2018-12-03T22:12:44.456Z,3.77
2018-12-03T22:17:35.467Z,3.43
2018-12-03T22:22:26.360Z,3.70
2018-12-03T22:27:18.182Z,3.57
2018-12-03T22:32:08.979Z,3.60
2018-12-03T22:37:00.617Z,5.70
2018-12-03T22:41:52.238Z,4.50
2018-12-03T22:46:43.229Z,3.87
2018-12-03T22:51:34.142Z,2.80
2018-12-03T22:56:25.068Z,8.47
2018-12-03T23:01:15.954Z,2.60
2018-12-03T23:06:06.906Z,4.10
2018-12-03T23:10:57.822Z,6.17
2018-12-03T23:15:48.713Z,2.43
2018-12-03T23:20:39.657Z,3.30
2018-12-03T23:25:30.579Z,2.60
2018-12-03T23:30:21.484Z,3.17
2018-12-03T23:35:12.384Z,2.90
2018-12-03T23:40:03.297Z,3.03
2018-12-03T23:44:54.300Z,2.60
2018-12-03T23:49:45.933Z,2.60
2018-12-03T23:54:37.566Z,5.87
2018-12-03T23:59:29.197Z,2.63
